sensor_id;sensor_type;location;lat;lon;timestamp;temperature;humidity
23237;DHT22;11787;52.018;8.570;2022-08-11T00:01:44;18.70;99.90
23237;DHT22;11787;52.018;8.570;2022-08-11T00:04:11;18.70;99.90
23237;DHT22;11787;52.018;8.570;2022-08-11T00:06:38;18.70;99.90
23237;DHT22;11787;52.018;8.570;2022-08-11T00:09:08;18.60;99.90
23237;DHT22;11787;52.018;8.570;2022-08-11T00:11:40;18.60;99.90
23237;DHT22;11787;52.018;8.570;2022-08-11T00:14:18;18.60;99.90
23237;DHT22;11787;52.018;8.570;2022-08-11T00:16:56;18.60;99.90
23237;DHT22;11787;52.018;8.570;2022-08-11T00:19:24;18.60;99.90
23237;DHT22;11787;52.018;8.570;2022-08-11T00:21:51;18.60;99.90
23237;DHT22;11787;52.018;8.570;2022-08-11T00:24:17;18.60;99.90
23237;DHT22;11787;52.018;8.570;2022-08-11T00:26:53;18.60;99.90
23237;DHT22;11787;52.018;8.570;2022-08-11T00:29:20;18.60;99.90
23237;DHT22;11787;52.018;8.570;2022-08-11T00:31:52;18.50;99.90
23237;DHT22;11787;52.018;8.570;2022-08-11T00:34:25;18.50;99.90
23237;DHT22;11787;52.018;8.570;2022-08-11T00:37:01;18.50;99.90
23237;DHT22;11787;52.018;8.570;2022-08-11T00:39:31;18.50;99.90
23237;DHT22;11787;52.018;8.570;2022-08-11T00:53:11;18.20;99.90
23237;DHT22;11787;52.018;8.570;2022-08-11T01:01:27;18.00;99.90
23237;DHT22;11787;52.018;8.570;2022-08-11T01:07:07;17.90;99.90
23237;DHT22;11787;52.018;8.570;2022-08-11T01:12:52;17.70;99.90
23237;DHT22;11787;52.018;8.570;2022-08-11T01:30:23;17.50;99.90
23237;DHT22;11787;52.018;8.570;2022-08-11T01:39:00;17.40;99.90
23237;DHT22;11787;52.018;8.570;2022-08-11T01:41:35;17.40;99.90
23237;DHT22;11787;52.018;8.570;2022-08-11T01:58:55;17.20;99.90
23237;DHT22;11787;52.018;8.570;2022-08-11T02:01:31;17.20;99.90
23237;DHT22;11787;52.018;8.570;2022-08-11T02:07:12;17.10;99.90
23237;DHT22;11787;52.018;8.570;2022-08-11T02:13:22;17.00;99.90
23237;DHT22;11787;52.018;8.570;2022-08-11T02:16:20;17.00;99.90
23237;DHT22;11787;52.018;8.570;2022-08-11T02:19:25;17.00;99.90
23237;DHT22;11787;52.018;8.570;2022-08-11T02:28:26;17.00;99.90
23237;DHT22;11787;52.018;8.570;2022-08-11T02:31:07;17.00;99.90
23237;DHT22;11787;52.018;8.570;2022-08-11T02:39:51;16.80;99.90
23237;DHT22;11787;52.018;8.570;2022-08-11T02:42:37;16.80;99.90
23237;DHT22;11787;52.018;8.570;2022-08-11T02:48:11;16.70;99.90
23237;DHT22;11787;52.018;8.570;2022-08-11T02:54:11;16.60;99.90
23237;DHT22;11787;52.018;8.570;2022-08-11T02:56:57;16.60;99.90
23237;DHT22;11787;52.018;8.570;2022-08-11T03:13:22;16.50;99.90
23237;DHT22;11787;52.018;8.570;2022-08-11T03:22:18;16.50;99.90
23237;DHT22;11787;52.018;8.570;2022-08-11T03:25:12;16.40;99.90
23237;DHT22;11787;52.018;8.570;2022-08-11T03:30:18;16.30;99.90
23237;DHT22;11787;52.018;8.570;2022-08-11T03:35:48;16.30;99.90
23237;DHT22;11787;52.018;8.570;2022-08-11T03:38:21;16.30;99.90
23237;DHT22;11787;52.018;8.570;2022-08-11T04:24:37;15.80;99.90
23237;DHT22;11787;52.018;8.570;2022-08-11T04:30:14;15.90;99.90
23237;DHT22;11787;52.018;8.570;2022-08-11T04:33:09;15.90;99.90
23237;DHT22;11787;52.018;8.570;2022-08-11T04:38:32;15.90;99.90
23237;DHT22;11787;52.018;8.570;2022-08-11T04:50:25;15.90;99.90
23237;DHT22;11787;52.018;8.570;2022-08-11T04:53:26;15.90;99.90
23237;DHT22;11787;52.018;8.570;2022-08-11T04:56:19;15.90;99.90
23237;DHT22;11787;52.018;8.570;2022-08-11T05:05:22;16.10;99.90
23237;DHT22;11787;52.018;8.570;2022-08-11T05:13:11;16.30;99.90
23237;DHT22;11787;52.018;8.570;2022-08-11T05:16:09;16.40;99.90
23237;DHT22;11787;52.018;8.570;2022-08-11T05:18:55;16.50;99.90
23237;DHT22;11787;52.018;8.570;2022-08-11T05:21:42;16.50;99.90
23237;DHT22;11787;52.018;8.570;2022-08-11T05:24:36;16.60;99.90
23237;DHT22;11787;52.018;8.570;2022-08-11T05:27:25;16.70;99.90
23237;DHT22;11787;52.018;8.570;2022-08-11T05:30:12;16.80;99.90
23237;DHT22;11787;52.018;8.570;2022-08-11T05:33:08;17.00;99.90
23237;DHT22;11787;52.018;8.570;2022-08-11T05:36:25;17.20;99.90
23237;DHT22;11787;52.018;8.570;2022-08-11T05:39:25;17.50;99.90
23237;DHT22;11787;52.018;8.570;2022-08-11T05:42:08;17.80;99.90
23237;DHT22;11787;52.018;8.570;2022-08-11T05:44:56;18.20;99.90
23237;DHT22;11787;52.018;8.570;2022-08-11T05:47:42;18.50;99.90
23237;DHT22;11787;52.018;8.570;2022-08-11T05:50:31;18.80;99.90
23237;DHT22;11787;52.018;8.570;2022-08-11T05:53:16;19.10;99.90
23237;DHT22;11787;52.018;8.570;2022-08-11T05:56:04;19.50;99.90
23237;DHT22;11787;52.018;8.570;2022-08-11T05:58:47;20.00;99.90
23237;DHT22;11787;52.018;8.570;2022-08-11T06:01:19;20.20;99.90
23237;DHT22;11787;52.018;8.570;2022-08-11T06:03:47;20.60;99.90
23237;DHT22;11787;52.018;8.570;2022-08-11T06:06:32;20.80;99.90
23237;DHT22;11787;52.018;8.570;2022-08-11T06:08:58;21.10;99.90
23237;DHT22;11787;52.018;8.570;2022-08-11T06:11:25;21.20;99.90
23237;DHT22;11787;52.018;8.570;2022-08-11T06:13:51;21.20;99.90
23237;DHT22;11787;52.018;8.570;2022-08-11T06:16:24;21.40;99.90
23237;DHT22;11787;52.018;8.570;2022-08-11T06:18:50;21.30;99.90
23237;DHT22;11787;52.018;8.570;2022-08-11T06:21:16;21.10;99.90
23237;DHT22;11787;52.018;8.570;2022-08-11T06:23:43;21.10;99.90
23237;DHT22;11787;52.018;8.570;2022-08-11T06:26:09;21.10;99.90
23237;DHT22;11787;52.018;8.570;2022-08-11T06:28:36;21.20;99.90
23237;DHT22;11787;52.018;8.570;2022-08-11T06:31:16;21.10;99.90
23237;DHT22;11787;52.018;8.570;2022-08-11T06:39:15;21.00;99.90
23237;DHT22;11787;52.018;8.570;2022-08-11T06:44:25;21.00;99.90
23237;DHT22;11787;52.018;8.570;2022-08-11T06:46:52;20.90;99.90
23237;DHT22;11787;52.018;8.570;2022-08-11T06:49:21;20.90;99.90
23237;DHT22;11787;52.018;8.570;2022-08-11T06:52:10;20.90;99.90
23237;DHT22;11787;52.018;8.570;2022-08-11T06:54:42;20.90;99.90
23237;DHT22;11787;52.018;8.570;2022-08-11T06:57:11;21.00;99.90
23237;DHT22;11787;52.018;8.570;2022-08-11T06:59:55;21.00;99.90
23237;DHT22;11787;52.018;8.570;2022-08-11T07:02:48;21.10;99.90
23237;DHT22;11787;52.018;8.570;2022-08-11T07:10:52;21.20;99.90
23237;DHT22;11787;52.018;8.570;2022-08-11T07:13:38;21.30;99.90
23237;DHT22;11787;52.018;8.570;2022-08-11T07:16:27;21.40;99.90
23237;DHT22;11787;52.018;8.570;2022-08-11T07:18:54;21.50;99.90
23237;DHT22;11787;52.018;8.570;2022-08-11T07:21:40;21.60;99.90
23237;DHT22;11787;52.018;8.570;2022-08-11T07:24:27;21.80;99.90
23237;DHT22;11787;52.018;8.570;2022-08-11T07:27:16;21.90;99.90
23237;DHT22;11787;52.018;8.570;2022-08-11T07:30:05;21.90;99.90
23237;DHT22;11787;52.018;8.570;2022-08-11T07:32:32;21.80;99.90
23237;DHT22;11787;52.018;8.570;2022-08-11T07:35:00;22.00;99.90
23237;DHT22;11787;52.018;8.570;2022-08-11T07:37:27;22.10;99.90
23237;DHT22;11787;52.018;8.570;2022-08-11T07:39:55;22.20;99.90
23237;DHT22;11787;52.018;8.570;2022-08-11T07:42:25;22.40;99.90
23237;DHT22;11787;52.018;8.570;2022-08-11T07:44:52;22.40;99.90
23237;DHT22;11787;52.018;8.570;2022-08-11T07:47:38;22.40;99.90
23237;DHT22;11787;52.018;8.570;2022-08-11T07:50:22;22.60;99.90
23237;DHT22;11787;52.018;8.570;2022-08-11T07:53:06;22.60;99.90
23237;DHT22;11787;52.018;8.570;2022-08-11T07:55:32;22.70;99.90
23237;DHT22;11787;52.018;8.570;2022-08-11T07:57:59;22.80;99.90
23237;DHT22;11787;52.018;8.570;2022-08-11T08:00:51;22.90;99.90
23237;DHT22;11787;52.018;8.570;2022-08-11T08:03:36;23.10;99.90
23237;DHT22;11787;52.018;8.570;2022-08-11T08:06:20;23.20;99.90
23237;DHT22;11787;52.018;8.570;2022-08-11T08:09:05;23.30;99.90
23237;DHT22;11787;52.018;8.570;2022-08-11T08:11:50;23.30;99.90
23237;DHT22;11787;52.018;8.570;2022-08-11T08:14:34;23.40;99.90
23237;DHT22;11787;52.018;8.570;2022-08-11T08:17:19;23.50;99.90
23237;DHT22;11787;52.018;8.570;2022-08-11T08:20:04;23.60;99.90
23237;DHT22;11787;52.018;8.570;2022-08-11T08:22:31;23.70;99.90
23237;DHT22;11787;52.018;8.570;2022-08-11T08:24:57;23.90;99.90
23237;DHT22;11787;52.018;8.570;2022-08-11T08:27:23;24.10;99.90
23237;DHT22;11787;52.018;8.570;2022-08-11T08:29:50;24.20;99.90
23237;DHT22;11787;52.018;8.570;2022-08-11T08:32:37;24.30;99.90
23237;DHT22;11787;52.018;8.570;2022-08-11T08:35:02;24.50;99.90
23237;DHT22;11787;52.018;8.570;2022-08-11T08:37:29;24.60;99.90
23237;DHT22;11787;52.018;8.570;2022-08-11T08:39:54;24.80;99.90
23237;DHT22;11787;52.018;8.570;2022-08-11T08:42:30;25.00;99.90
23237;DHT22;11787;52.018;8.570;2022-08-11T08:47:28;25.10;99.90
23237;DHT22;11787;52.018;8.570;2022-08-11T08:49:58;25.30;99.90
23237;DHT22;11787;52.018;8.570;2022-08-11T08:52:24;25.40;99.90
23237;DHT22;11787;52.018;8.570;2022-08-11T08:54:53;25.60;99.90
23237;DHT22;11787;52.018;8.570;2022-08-11T08:57:21;25.90;99.90
23237;DHT22;11787;52.018;8.570;2022-08-11T08:59:47;26.10;99.90
23237;DHT22;11787;52.018;8.570;2022-08-11T09:02:13;26.10;99.90
23237;DHT22;11787;52.018;8.570;2022-08-11T09:04:39;26.20;99.90
23237;DHT22;11787;52.018;8.570;2022-08-11T09:07:06;26.30;99.90
23237;DHT22;11787;52.018;8.570;2022-08-11T09:09:33;26.60;99.90
23237;DHT22;11787;52.018;8.570;2022-08-11T09:11:59;27.00;99.90
23237;DHT22;11787;52.018;8.570;2022-08-11T09:14:32;27.10;99.90
23237;DHT22;11787;52.018;8.570;2022-08-11T09:17:18;27.10;99.90
23237;DHT22;11787;52.018;8.570;2022-08-11T09:19:47;27.30;99.90
23237;DHT22;11787;52.018;8.570;2022-08-11T09:22:17;27.40;99.90
23237;DHT22;11787;52.018;8.570;2022-08-11T09:25:02;27.50;99.90
23237;DHT22;11787;52.018;8.570;2022-08-11T09:27:46;27.60;99.90
23237;DHT22;11787;52.018;8.570;2022-08-11T09:30:12;27.80;99.90
23237;DHT22;11787;52.018;8.570;2022-08-11T09:32:38;28.10;99.90
23237;DHT22;11787;52.018;8.570;2022-08-11T09:35:07;28.30;99.90
23237;DHT22;11787;52.018;8.570;2022-08-11T09:37:33;28.80;99.90
23237;DHT22;11787;52.018;8.570;2022-08-11T09:40:17;29.10;99.90
23237;DHT22;11787;52.018;8.570;2022-08-11T09:42:56;29.20;99.90
23237;DHT22;11787;52.018;8.570;2022-08-11T09:45:40;29.40;99.90
23237;DHT22;11787;52.018;8.570;2022-08-11T09:48:08;29.50;99.90
23237;DHT22;11787;52.018;8.570;2022-08-11T09:50:35;29.30;99.90
23237;DHT22;11787;52.018;8.570;2022-08-11T09:53:03;29.20;99.90
23237;DHT22;11787;52.018;8.570;2022-08-11T09:55:31;29.10;99.90
23237;DHT22;11787;52.018;8.570;2022-08-11T09:57:57;29.30;99.90
23237;DHT22;11787;52.018;8.570;2022-08-11T10:00:38;29.50;99.90
23237;DHT22;11787;52.018;8.570;2022-08-11T10:03:07;29.70;99.90
23237;DHT22;11787;52.018;8.570;2022-08-11T10:05:34;30.10;99.90
23237;DHT22;11787;52.018;8.570;2022-08-11T10:08:22;30.50;99.90
23237;DHT22;11787;52.018;8.570;2022-08-11T10:10:51;31.00;99.90
23237;DHT22;11787;52.018;8.570;2022-08-11T10:13:20;31.30;99.90
23237;DHT22;11787;52.018;8.570;2022-08-11T10:15:47;31.30;99.90
23237;DHT22;11787;52.018;8.570;2022-08-11T10:18:18;31.10;99.90
23237;DHT22;11787;52.018;8.570;2022-08-11T10:23:44;31.80;99.90
23237;DHT22;11787;52.018;8.570;2022-08-11T10:26:29;32.30;97.80
23237;DHT22;11787;52.018;8.570;2022-08-11T10:29:15;32.40;96.60
23237;DHT22;11787;52.018;8.570;2022-08-11T10:32:00;32.40;95.80
23237;DHT22;11787;52.018;8.570;2022-08-11T10:34:47;32.40;94.90
23237;DHT22;11787;52.018;8.570;2022-08-11T10:37:15;32.60;94.00
23237;DHT22;11787;52.018;8.570;2022-08-11T10:39:42;32.20;92.50
23237;DHT22;11787;52.018;8.570;2022-08-11T10:42:10;31.90;92.90
23237;DHT22;11787;52.018;8.570;2022-08-11T10:44:57;31.90;92.50
23237;DHT22;11787;52.018;8.570;2022-08-11T10:47:24;32.00;93.10
23237;DHT22;11787;52.018;8.570;2022-08-11T10:50:00;32.10;92.80
23237;DHT22;11787;52.018;8.570;2022-08-11T10:52:47;32.10;91.70
23237;DHT22;11787;52.018;8.570;2022-08-11T10:55:34;32.50;91.50
23237;DHT22;11787;52.018;8.570;2022-08-11T10:58:20;32.60;90.60
23237;DHT22;11787;52.018;8.570;2022-08-11T11:01:05;32.90;88.80
23237;DHT22;11787;52.018;8.570;2022-08-11T11:03:31;32.90;87.20
23237;DHT22;11787;52.018;8.570;2022-08-11T11:26:59;33.30;84.50
23237;DHT22;11787;52.018;8.570;2022-08-11T11:29:53;33.80;82.80
23237;DHT22;11787;52.018;8.570;2022-08-11T11:37:42;33.50;76.60
23237;DHT22;11787;52.018;8.570;2022-08-11T11:40:13;33.70;80.00
23237;DHT22;11787;52.018;8.570;2022-08-11T11:42:42;33.60;77.60
23237;DHT22;11787;52.018;8.570;2022-08-11T11:45:09;33.30;74.80
23237;DHT22;11787;52.018;8.570;2022-08-11T11:47:37;33.10;75.00
23237;DHT22;11787;52.018;8.570;2022-08-11T11:50:06;33.60;77.70
23237;DHT22;11787;52.018;8.570;2022-08-11T11:52:33;33.60;78.00
23237;DHT22;11787;52.018;8.570;2022-08-11T11:54:59;33.40;77.80
23237;DHT22;11787;52.018;8.570;2022-08-11T11:57:26;33.70;77.10
23237;DHT22;11787;52.018;8.570;2022-08-11T12:00:12;34.10;77.90
23237;DHT22;11787;52.018;8.570;2022-08-11T12:02:59;34.20;75.80
23237;DHT22;11787;52.018;8.570;2022-08-11T12:05:26;34.10;77.80
23237;DHT22;11787;52.018;8.570;2022-08-11T12:07:53;34.40;77.50
23237;DHT22;11787;52.018;8.570;2022-08-11T12:10:46;34.60;74.50
23237;DHT22;11787;52.018;8.570;2022-08-11T12:13:14;34.60;72.90
23237;DHT22;11787;52.018;8.570;2022-08-11T12:15:59;34.90;73.60
23237;DHT22;11787;52.018;8.570;2022-08-11T12:18:30;34.80;74.00
23237;DHT22;11787;52.018;8.570;2022-08-11T12:20:59;35.00;73.70
23237;DHT22;11787;52.018;8.570;2022-08-11T12:23:25;34.90;73.70
23237;DHT22;11787;52.018;8.570;2022-08-11T12:26:13;35.10;71.50
23237;DHT22;11787;52.018;8.570;2022-08-11T12:28:59;35.10;72.10
23237;DHT22;11787;52.018;8.570;2022-08-11T12:31:27;35.10;72.80
23237;DHT22;11787;52.018;8.570;2022-08-11T12:34:00;34.90;71.30
23237;DHT22;11787;52.018;8.570;2022-08-11T12:36:25;35.30;72.90
23237;DHT22;11787;52.018;8.570;2022-08-11T12:38:52;35.60;70.70
23237;DHT22;11787;52.018;8.570;2022-08-11T12:41:20;35.70;71.20
23237;DHT22;11787;52.018;8.570;2022-08-11T12:44:08;35.60;72.60
23237;DHT22;11787;52.018;8.570;2022-08-11T12:46:54;35.70;69.70
23237;DHT22;11787;52.018;8.570;2022-08-11T12:49:22;35.70;68.90
23237;DHT22;11787;52.018;8.570;2022-08-11T12:52:16;35.60;68.30
23237;DHT22;11787;52.018;8.570;2022-08-11T12:55:11;35.40;68.90
23237;DHT22;11787;52.018;8.570;2022-08-11T12:57:46;35.20;69.10
23237;DHT22;11787;52.018;8.570;2022-08-11T13:00:32;35.00;69.60
23237;DHT22;11787;52.018;8.570;2022-08-11T13:03:19;34.70;70.00
23237;DHT22;11787;52.018;8.570;2022-08-11T13:06:04;34.80;70.60
23237;DHT22;11787;52.018;8.570;2022-08-11T13:08:36;34.60;68.20
23237;DHT22;11787;52.018;8.570;2022-08-11T13:11:02;34.90;70.10
23237;DHT22;11787;52.018;8.570;2022-08-11T13:13:48;35.30;68.10
23237;DHT22;11787;52.018;8.570;2022-08-11T13:16:15;35.10;64.00
23237;DHT22;11787;52.018;8.570;2022-08-11T13:18:42;34.60;66.60
23237;DHT22;11787;52.018;8.570;2022-08-11T13:21:11;34.50;68.00
23237;DHT22;11787;52.018;8.570;2022-08-11T13:23:39;34.10;66.60
23237;DHT22;11787;52.018;8.570;2022-08-11T13:26:05;33.80;66.90
23237;DHT22;11787;52.018;8.570;2022-08-11T13:28:34;34.00;65.70
23237;DHT22;11787;52.018;8.570;2022-08-11T13:31:01;34.30;67.30
23237;DHT22;11787;52.018;8.570;2022-08-11T13:33:44;34.70;64.00
23237;DHT22;11787;52.018;8.570;2022-08-11T13:36:11;34.80;66.80
23237;DHT22;11787;52.018;8.570;2022-08-11T13:38:41;35.00;64.00
23237;DHT22;11787;52.018;8.570;2022-08-11T13:41:08;34.90;65.40
23237;DHT22;11787;52.018;8.570;2022-08-11T13:43:53;34.30;64.30
23237;DHT22;11787;52.018;8.570;2022-08-11T13:46:21;34.20;65.60
23237;DHT22;11787;52.018;8.570;2022-08-11T13:48:53;34.30;66.20
23237;DHT22;11787;52.018;8.570;2022-08-11T13:51:20;34.60;66.60
23237;DHT22;11787;52.018;8.570;2022-08-11T13:56:28;34.50;66.40
23237;DHT22;11787;52.018;8.570;2022-08-11T13:58:55;34.30;65.60
23237;DHT22;11787;52.018;8.570;2022-08-11T14:01:27;34.30;65.50
23237;DHT22;11787;52.018;8.570;2022-08-11T14:03:54;34.40;65.40
23237;DHT22;11787;52.018;8.570;2022-08-11T14:06:22;34.20;63.20
23237;DHT22;11787;52.018;8.570;2022-08-11T14:08:48;34.20;62.70
23237;DHT22;11787;52.018;8.570;2022-08-11T14:11:18;33.80;64.60
23237;DHT22;11787;52.018;8.570;2022-08-11T14:14:04;33.70;64.50
23237;DHT22;11787;52.018;8.570;2022-08-11T14:16:33;33.80;62.90
23237;DHT22;11787;52.018;8.570;2022-08-11T14:19:04;33.80;62.90
23237;DHT22;11787;52.018;8.570;2022-08-11T14:21:35;33.80;63.60
23237;DHT22;11787;52.018;8.570;2022-08-11T14:24:20;33.80;63.10
23237;DHT22;11787;52.018;8.570;2022-08-11T14:26:48;33.70;62.80
23237;DHT22;11787;52.018;8.570;2022-08-11T14:29:22;33.60;64.00
23237;DHT22;11787;52.018;8.570;2022-08-11T14:31:52;33.50;62.20
23237;DHT22;11787;52.018;8.570;2022-08-11T14:34:21;33.40;64.20
23237;DHT22;11787;52.018;8.570;2022-08-11T14:36:51;33.30;64.10
23237;DHT22;11787;52.018;8.570;2022-08-11T14:39:42;33.40;63.90
23237;DHT22;11787;52.018;8.570;2022-08-11T14:42:06;33.30;65.80
23237;DHT22;11787;52.018;8.570;2022-08-11T14:44:56;33.00;65.90
23237;DHT22;11787;52.018;8.570;2022-08-11T14:47:32;33.10;65.20
23237;DHT22;11787;52.018;8.570;2022-08-11T14:49:59;33.10;66.30
23237;DHT22;11787;52.018;8.570;2022-08-11T14:52:27;33.20;65.70
23237;DHT22;11787;52.018;8.570;2022-08-11T14:54:54;33.10;66.60
23237;DHT22;11787;52.018;8.570;2022-08-11T14:57:40;33.10;66.70
23237;DHT22;11787;52.018;8.570;2022-08-11T15:00:09;33.00;65.50
23237;DHT22;11787;52.018;8.570;2022-08-11T15:02:38;32.80;65.20
23237;DHT22;11787;52.018;8.570;2022-08-11T15:05:23;32.50;63.50
23237;DHT22;11787;52.018;8.570;2022-08-11T15:07:51;32.30;65.70
23237;DHT22;11787;52.018;8.570;2022-08-11T15:10:18;32.40;67.60
23237;DHT22;11787;52.018;8.570;2022-08-11T15:12:45;32.50;65.80
23237;DHT22;11787;52.018;8.570;2022-08-11T15:15:12;32.30;65.90
23237;DHT22;11787;52.018;8.570;2022-08-11T15:18:01;32.20;66.60
23237;DHT22;11787;52.018;8.570;2022-08-11T15:20:29;32.10;66.20
23237;DHT22;11787;52.018;8.570;2022-08-11T15:23:14;32.10;66.10
23237;DHT22;11787;52.018;8.570;2022-08-11T15:26:02;31.90;66.20
23237;DHT22;11787;52.018;8.570;2022-08-11T15:28:31;31.70;65.50
23237;DHT22;11787;52.018;8.570;2022-08-11T15:31:18;31.50;65.20
23237;DHT22;11787;52.018;8.570;2022-08-11T15:33:52;31.70;68.40
23237;DHT22;11787;52.018;8.570;2022-08-11T15:36:38;31.90;67.10
23237;DHT22;11787;52.018;8.570;2022-08-11T15:39:38;32.00;66.10
23237;DHT22;11787;52.018;8.570;2022-08-11T15:42:24;32.10;65.90
23237;DHT22;11787;52.018;8.570;2022-08-11T15:45:09;32.00;65.30
23237;DHT22;11787;52.018;8.570;2022-08-11T15:47:58;31.60;66.30
23237;DHT22;11787;52.018;8.570;2022-08-11T15:50:30;31.50;65.10
23237;DHT22;11787;52.018;8.570;2022-08-11T15:53:01;31.50;64.80
23237;DHT22;11787;52.018;8.570;2022-08-11T15:55:28;31.50;66.10
23237;DHT22;11787;52.018;8.570;2022-08-11T15:57:58;31.50;65.70
23237;DHT22;11787;52.018;8.570;2022-08-11T16:00:46;31.70;66.40
23237;DHT22;11787;52.018;8.570;2022-08-11T16:03:48;31.80;67.50
23237;DHT22;11787;52.018;8.570;2022-08-11T16:06:42;31.60;65.50
23237;DHT22;11787;52.018;8.570;2022-08-11T16:09:09;31.60;66.60
23237;DHT22;11787;52.018;8.570;2022-08-11T16:11:36;31.50;65.60
23237;DHT22;11787;52.018;8.570;2022-08-11T16:14:04;31.40;66.70
23237;DHT22;11787;52.018;8.570;2022-08-11T16:16:49;31.30;66.40
23237;DHT22;11787;52.018;8.570;2022-08-11T16:19:18;31.40;66.60
23237;DHT22;11787;52.018;8.570;2022-08-11T16:21:44;31.40;67.00
23237;DHT22;11787;52.018;8.570;2022-08-11T16:24:15;31.20;66.30
23237;DHT22;11787;52.018;8.570;2022-08-11T16:26:42;31.10;66.40
23237;DHT22;11787;52.018;8.570;2022-08-11T16:29:10;31.10;67.00
23237;DHT22;11787;52.018;8.570;2022-08-11T16:31:37;31.00;67.60
23237;DHT22;11787;52.018;8.570;2022-08-11T16:34:03;31.00;67.40
23237;DHT22;11787;52.018;8.570;2022-08-11T16:36:30;31.00;66.80
23237;DHT22;11787;52.018;8.570;2022-08-11T16:39:17;31.00;67.10
23237;DHT22;11787;52.018;8.570;2022-08-11T16:41:44;30.90;68.20
23237;DHT22;11787;52.018;8.570;2022-08-11T16:44:30;30.80;66.80
23237;DHT22;11787;52.018;8.570;2022-08-11T16:47:17;30.60;65.60
23237;DHT22;11787;52.018;8.570;2022-08-11T16:49:50;30.50;69.10
23237;DHT22;11787;52.018;8.570;2022-08-11T16:52:16;30.50;68.20
23237;DHT22;11787;52.018;8.570;2022-08-11T16:54:42;30.40;69.40
23237;DHT22;11787;52.018;8.570;2022-08-11T16:57:14;30.40;69.10
23237;DHT22;11787;52.018;8.570;2022-08-11T17:00:02;30.30;68.20
23237;DHT22;11787;52.018;8.570;2022-08-11T17:02:32;30.20;68.00
23237;DHT22;11787;52.018;8.570;2022-08-11T17:05:22;30.20;69.10
23237;DHT22;11787;52.018;8.570;2022-08-11T17:08:08;30.20;68.10
23237;DHT22;11787;52.018;8.570;2022-08-11T17:10:58;30.20;68.30
23237;DHT22;11787;52.018;8.570;2022-08-11T17:13:51;30.10;68.30
23237;DHT22;11787;52.018;8.570;2022-08-11T17:16:32;30.00;69.20
23237;DHT22;11787;52.018;8.570;2022-08-11T17:19:02;30.00;69.30
23237;DHT22;11787;52.018;8.570;2022-08-11T17:21:42;29.90;69.50
23237;DHT22;11787;52.018;8.570;2022-08-11T17:24:28;29.90;70.50
23237;DHT22;11787;52.018;8.570;2022-08-11T17:26:56;29.80;69.10
23237;DHT22;11787;52.018;8.570;2022-08-11T17:29:57;29.80;71.20
23237;DHT22;11787;52.018;8.570;2022-08-11T17:35:21;29.60;69.20
23237;DHT22;11787;52.018;8.570;2022-08-11T17:40:22;29.40;70.00
23237;DHT22;11787;52.018;8.570;2022-08-11T17:42:53;29.30;71.00
23237;DHT22;11787;52.018;8.570;2022-08-11T17:45:41;29.20;70.80
23237;DHT22;11787;52.018;8.570;2022-08-11T17:48:35;29.10;71.50
23237;DHT22;11787;52.018;8.570;2022-08-11T17:51:11;29.00;72.40
23237;DHT22;11787;52.018;8.570;2022-08-11T17:53:41;28.90;72.30
23237;DHT22;11787;52.018;8.570;2022-08-11T17:56:27;28.80;72.30
23237;DHT22;11787;52.018;8.570;2022-08-11T17:59:14;28.70;72.20
23237;DHT22;11787;52.018;8.570;2022-08-11T18:02:01;28.60;72.50
23237;DHT22;11787;52.018;8.570;2022-08-11T18:04:49;28.70;73.10
23237;DHT22;11787;52.018;8.570;2022-08-11T18:07:20;28.60;73.80
23237;DHT22;11787;52.018;8.570;2022-08-11T18:10:06;28.50;73.80
23237;DHT22;11787;52.018;8.570;2022-08-11T18:12:52;28.40;74.00
23237;DHT22;11787;52.018;8.570;2022-08-11T18:15:40;28.40;74.50
23237;DHT22;11787;52.018;8.570;2022-08-11T18:18:26;28.30;75.00
23237;DHT22;11787;52.018;8.570;2022-08-11T18:21:13;28.20;73.50
23237;DHT22;11787;52.018;8.570;2022-08-11T18:24:04;28.00;73.80
23237;DHT22;11787;52.018;8.570;2022-08-11T18:26:51;28.00;75.40
23237;DHT22;11787;52.018;8.570;2022-08-11T18:29:39;27.90;74.40
23237;DHT22;11787;52.018;8.570;2022-08-11T18:32:26;27.80;75.30
23237;DHT22;11787;52.018;8.570;2022-08-11T18:35:12;27.80;75.20
23237;DHT22;11787;52.018;8.570;2022-08-11T18:37:58;27.70;76.30
23237;DHT22;11787;52.018;8.570;2022-08-11T18:40:46;27.60;76.50
23237;DHT22;11787;52.018;8.570;2022-08-11T18:43:34;27.50;77.10
23237;DHT22;11787;52.018;8.570;2022-08-11T18:46:22;27.30;77.20
23237;DHT22;11787;52.018;8.570;2022-08-11T18:49:12;27.20;78.20
23237;DHT22;11787;52.018;8.570;2022-08-11T18:51:59;27.20;78.30
23237;DHT22;11787;52.018;8.570;2022-08-11T18:54:46;27.10;78.70
23237;DHT22;11787;52.018;8.570;2022-08-11T18:57:32;26.90;79.70
23237;DHT22;11787;52.018;8.570;2022-08-11T19:00:18;26.90;80.40
23237;DHT22;11787;52.018;8.570;2022-08-11T19:03:04;26.70;81.10
23237;DHT22;11787;52.018;8.570;2022-08-11T19:05:49;26.60;83.40
23237;DHT22;11787;52.018;8.570;2022-08-11T19:08:57;26.40;83.20
23237;DHT22;11787;52.018;8.570;2022-08-11T19:11:40;26.30;84.10
23237;DHT22;11787;52.018;8.570;2022-08-11T19:17:47;26.00;86.50
23237;DHT22;11787;52.018;8.570;2022-08-11T19:20:34;25.90;88.10
23237;DHT22;11787;52.018;8.570;2022-08-11T19:23:32;25.80;86.90
23237;DHT22;11787;52.018;8.570;2022-08-11T19:26:18;25.70;87.40
23237;DHT22;11787;52.018;8.570;2022-08-11T19:29:04;25.60;87.60
23237;DHT22;11787;52.018;8.570;2022-08-11T19:31:49;25.60;88.80
23237;DHT22;11787;52.018;8.570;2022-08-11T19:34:35;25.50;89.40
23237;DHT22;11787;52.018;8.570;2022-08-11T19:37:19;25.40;88.80
23237;DHT22;11787;52.018;8.570;2022-08-11T19:40:08;25.30;89.40
23237;DHT22;11787;52.018;8.570;2022-08-11T19:42:55;25.20;90.10
23237;DHT22;11787;52.018;8.570;2022-08-11T19:45:41;25.20;90.50
23237;DHT22;11787;52.018;8.570;2022-08-11T19:48:26;25.00;90.90
23237;DHT22;11787;52.018;8.570;2022-08-11T19:51:12;25.00;90.70
23237;DHT22;11787;52.018;8.570;2022-08-11T19:53:57;24.80;91.70
23237;DHT22;11787;52.018;8.570;2022-08-11T19:56:43;24.70;91.50
23237;DHT22;11787;52.018;8.570;2022-08-11T19:59:28;24.60;92.00
23237;DHT22;11787;52.018;8.570;2022-08-11T20:02:13;24.50;92.00
23237;DHT22;11787;52.018;8.570;2022-08-11T20:04:58;24.50;92.30
23237;DHT22;11787;52.018;8.570;2022-08-11T20:07:43;24.40;93.00
23237;DHT22;11787;52.018;8.570;2022-08-11T20:10:29;24.30;92.80
23237;DHT22;11787;52.018;8.570;2022-08-11T20:13:14;24.30;93.40
23237;DHT22;11787;52.018;8.570;2022-08-11T20:16:01;24.20;93.80
23237;DHT22;11787;52.018;8.570;2022-08-11T20:18:46;24.10;93.70
23237;DHT22;11787;52.018;8.570;2022-08-11T20:21:34;24.10;94.80
23237;DHT22;11787;52.018;8.570;2022-08-11T20:24:20;24.00;94.60
23237;DHT22;11787;52.018;8.570;2022-08-11T20:27:05;24.00;95.50
23237;DHT22;11787;52.018;8.570;2022-08-11T20:29:53;23.90;95.60
23237;DHT22;11787;52.018;8.570;2022-08-11T20:32:39;23.80;96.20